sensor_id;sensor_type;location;lat;lon;timestamp;temperature;humidity
23869;DHT22;12115;47.128;15.422;2023-04-12T00:02:24;7.10;99.90
23869;DHT22;12115;47.128;15.422;2023-04-12T00:04:53;7.10;99.90
23869;DHT22;12115;47.128;15.422;2023-04-12T00:07:24;7.10;99.90
23869;DHT22;12115;47.128;15.422;2023-04-12T00:09:51;7.20;99.90
23869;DHT22;12115;47.128;15.422;2023-04-12T00:12:19;7.20;99.90
23869;DHT22;12115;47.128;15.422;2023-04-12T00:14:47;7.20;99.90
23869;DHT22;12115;47.128;15.422;2023-04-12T00:17:14;7.20;99.90
23869;DHT22;12115;47.128;15.422;2023-04-12T00:19:42;7.20;99.90
23869;DHT22;12115;47.128;15.422;2023-04-12T00:22:11;7.20;99.90
23869;DHT22;12115;47.128;15.422;2023-04-12T00:24:39;7.30;99.90
23869;DHT22;12115;47.128;15.422;2023-04-12T00:27:07;7.30;99.90
23869;DHT22;12115;47.128;15.422;2023-04-12T00:29:35;7.30;99.90
23869;DHT22;12115;47.128;15.422;2023-04-12T00:32:02;7.30;99.90
23869;DHT22;12115;47.128;15.422;2023-04-12T00:34:31;7.30;99.90
23869;DHT22;12115;47.128;15.422;2023-04-12T00:37:00;7.40;99.90
23869;DHT22;12115;47.128;15.422;2023-04-12T00:39:28;7.40;99.90
23869;DHT22;12115;47.128;15.422;2023-04-12T00:41:56;7.50;99.90
23869;DHT22;12115;47.128;15.422;2023-04-12T00:44:23;7.50;99.90
23869;DHT22;12115;47.128;15.422;2023-04-12T00:46:53;7.60;99.90
23869;DHT22;12115;47.128;15.422;2023-04-12T00:49:20;7.60;99.90
23869;DHT22;12115;47.128;15.422;2023-04-12T00:51:48;7.60;99.90
23869;DHT22;12115;47.128;15.422;2023-04-12T00:54:15;7.70;99.90
23869;DHT22;12115;47.128;15.422;2023-04-12T00:56:44;7.70;99.90
23869;DHT22;12115;47.128;15.422;2023-04-12T00:59:13;7.70;99.90
23869;DHT22;12115;47.128;15.422;2023-04-12T01:01:40;7.70;99.90
23869;DHT22;12115;47.128;15.422;2023-04-12T01:04:07;7.70;99.90
23869;DHT22;12115;47.128;15.422;2023-04-12T01:15:20;7.70;99.90
23869;DHT22;12115;47.128;15.422;2023-04-12T01:18:07;7.70;99.90
23869;DHT22;12115;47.128;15.422;2023-04-12T01:20:52;7.70;99.90
23869;DHT22;12115;47.128;15.422;2023-04-12T01:28:37;7.80;99.90
23869;DHT22;12115;47.128;15.422;2023-04-12T01:31:07;7.80;99.90
23869;DHT22;12115;47.128;15.422;2023-04-12T01:33:37;7.80;99.90
23869;DHT22;12115;47.128;15.422;2023-04-12T01:36:10;7.80;99.90
23869;DHT22;12115;47.128;15.422;2023-04-12T01:38:41;7.90;99.90
23869;DHT22;12115;47.128;15.422;2023-04-12T01:41:11;7.90;99.90
23869;DHT22;12115;47.128;15.422;2023-04-12T01:43:43;7.90;99.90
23869;DHT22;12115;47.128;15.422;2023-04-12T01:46:15;7.90;99.90
23869;DHT22;12115;47.128;15.422;2023-04-12T01:48:51;7.90;99.90
23869;DHT22;12115;47.128;15.422;2023-04-12T01:54:20;7.90;99.90
23869;DHT22;12115;47.128;15.422;2023-04-12T01:56:53;7.90;99.90
23869;DHT22;12115;47.128;15.422;2023-04-12T01:59:24;7.90;99.90
23869;DHT22;12115;47.128;15.422;2023-04-12T02:01:52;7.90;99.90
23869;DHT22;12115;47.128;15.422;2023-04-12T02:04:20;7.90;99.90
23869;DHT22;12115;47.128;15.422;2023-04-12T02:06:48;7.90;99.90
23869;DHT22;12115;47.128;15.422;2023-04-12T02:09:15;7.90;99.90
23869;DHT22;12115;47.128;15.422;2023-04-12T02:11:46;7.80;99.90
23869;DHT22;12115;47.128;15.422;2023-04-12T02:14:14;7.80;99.90
23869;DHT22;12115;47.128;15.422;2023-04-12T02:16:46;7.80;99.90
23869;DHT22;12115;47.128;15.422;2023-04-12T02:19:14;7.80;99.90
23869;DHT22;12115;47.128;15.422;2023-04-12T02:21:43;7.90;99.90
23869;DHT22;12115;47.128;15.422;2023-04-12T02:24:11;7.90;99.90
23869;DHT22;12115;47.128;15.422;2023-04-12T02:26:38;7.90;99.90
23869;DHT22;12115;47.128;15.422;2023-04-12T02:29:09;7.90;99.90
23869;DHT22;12115;47.128;15.422;2023-04-12T02:31:37;7.80;99.90
23869;DHT22;12115;47.128;15.422;2023-04-12T02:34:08;7.80;99.90
23869;DHT22;12115;47.128;15.422;2023-04-12T02:36:39;7.70;99.90
23869;DHT22;12115;47.128;15.422;2023-04-12T02:39:06;7.70;99.90
23869;DHT22;12115;47.128;15.422;2023-04-12T02:41:35;7.70;99.90
23869;DHT22;12115;47.128;15.422;2023-04-12T02:44:07;7.60;99.90
23869;DHT22;12115;47.128;15.422;2023-04-12T02:46:36;7.60;99.90
23869;DHT22;12115;47.128;15.422;2023-04-12T02:49:04;7.50;99.90
23869;DHT22;12115;47.128;15.422;2023-04-12T02:51:37;7.50;99.90
23869;DHT22;12115;47.128;15.422;2023-04-12T02:54:05;7.50;99.90
23869;DHT22;12115;47.128;15.422;2023-04-12T02:56:50;7.40;99.90
23869;DHT22;12115;47.128;15.422;2023-04-12T02:59:32;7.40;99.90
23869;DHT22;12115;47.128;15.422;2023-04-12T03:02:08;7.40;99.90
23869;DHT22;12115;47.128;15.422;2023-04-12T03:04:38;7.40;99.90
23869;DHT22;12115;47.128;15.422;2023-04-12T03:07:12;7.40;99.90
23869;DHT22;12115;47.128;15.422;2023-04-12T03:09:49;7.40;99.90
23869;DHT22;12115;47.128;15.422;2023-04-12T03:12:19;7.30;99.90
23869;DHT22;12115;47.128;15.422;2023-04-12T03:15:09;7.30;99.90
23869;DHT22;12115;47.128;15.422;2023-04-12T03:17:37;7.20;99.90
23869;DHT22;12115;47.128;15.422;2023-04-12T03:20:06;7.20;99.90
23869;DHT22;12115;47.128;15.422;2023-04-12T03:22:39;7.10;99.90
23869;DHT22;12115;47.128;15.422;2023-04-12T03:25:09;7.00;99.90
23869;DHT22;12115;47.128;15.422;2023-04-12T03:27:41;7.00;99.90
23869;DHT22;12115;47.128;15.422;2023-04-12T03:30:09;6.90;99.90
23869;DHT22;12115;47.128;15.422;2023-04-12T03:32:39;6.90;99.90
23869;DHT22;12115;47.128;15.422;2023-04-12T03:35:10;6.80;99.90
23869;DHT22;12115;47.128;15.422;2023-04-12T03:37:41;6.80;99.90
23869;DHT22;12115;47.128;15.422;2023-04-12T03:40:11;6.70;99.90
23869;DHT22;12115;47.128;15.422;2023-04-12T03:42:43;6.60;99.90
23869;DHT22;12115;47.128;15.422;2023-04-12T03:45:12;6.60;99.90
23869;DHT22;12115;47.128;15.422;2023-04-12T03:47:43;6.60;99.90
23869;DHT22;12115;47.128;15.422;2023-04-12T03:50:12;6.60;99.90
23869;DHT22;12115;47.128;15.422;2023-04-12T03:52:45;6.50;99.90
23869;DHT22;12115;47.128;15.422;2023-04-12T03:55:13;6.50;99.90
23869;DHT22;12115;47.128;15.422;2023-04-12T03:57:47;6.40;99.90
23869;DHT22;12115;47.128;15.422;2023-04-12T04:00:15;6.30;99.90
23869;DHT22;12115;47.128;15.422;2023-04-12T04:02:44;6.30;99.90
23869;DHT22;12115;47.128;15.422;2023-04-12T04:05:15;6.20;99.90
23869;DHT22;12115;47.128;15.422;2023-04-12T04:07:44;6.20;99.90
23869;DHT22;12115;47.128;15.422;2023-04-12T04:10:13;6.20;99.90
23869;DHT22;12115;47.128;15.422;2023-04-12T04:12:42;6.20;99.90
23869;DHT22;12115;47.128;15.422;2023-04-12T04:15:13;6.10;99.90
23869;DHT22;12115;47.128;15.422;2023-04-12T04:17:40;6.00;99.90
23869;DHT22;12115;47.128;15.422;2023-04-12T04:20:11;5.80;99.90
23869;DHT22;12115;47.128;15.422;2023-04-12T04:22:42;5.80;99.90
23869;DHT22;12115;47.128;15.422;2023-04-12T04:25:11;5.80;99.90
23869;DHT22;12115;47.128;15.422;2023-04-12T04:27:43;5.70;99.90
23869;DHT22;12115;47.128;15.422;2023-04-12T04:30:14;5.70;99.90
23869;DHT22;12115;47.128;15.422;2023-04-12T04:32:44;5.60;99.90
23869;DHT22;12115;47.128;15.422;2023-04-12T04:35:13;5.60;99.90
23869;DHT22;12115;47.128;15.422;2023-04-12T04:38:00;5.60;99.90
23869;DHT22;12115;47.128;15.422;2023-04-12T04:40:28;5.60;99.90
23869;DHT22;12115;47.128;15.422;2023-04-12T04:42:55;5.50;99.90
23869;DHT22;12115;47.128;15.422;2023-04-12T04:45:26;5.40;99.90
23869;DHT22;12115;47.128;15.422;2023-04-12T04:47:54;5.40;99.90
23869;DHT22;12115;47.128;15.422;2023-04-12T04:50:23;5.30;99.90
23869;DHT22;12115;47.128;15.422;2023-04-12T04:52:51;5.30;99.90
23869;DHT22;12115;47.128;15.422;2023-04-12T04:55:20;5.30;99.90
23869;DHT22;12115;47.128;15.422;2023-04-12T04:57:48;5.20;99.90
23869;DHT22;12115;47.128;15.422;2023-04-12T05:00:17;5.10;99.90
23869;DHT22;12115;47.128;15.422;2023-04-12T05:02:52;5.10;99.90
23869;DHT22;12115;47.128;15.422;2023-04-12T05:05:28;5.10;99.90
23869;DHT22;12115;47.128;15.422;2023-04-12T05:08:03;5.20;99.90
23869;DHT22;12115;47.128;15.422;2023-04-12T05:10:33;5.20;99.90
23869;DHT22;12115;47.128;15.422;2023-04-12T05:13:02;5.20;99.90
23869;DHT22;12115;47.128;15.422;2023-04-12T05:15:31;5.20;99.90
23869;DHT22;12115;47.128;15.422;2023-04-12T05:18:02;5.20;99.90
23869;DHT22;12115;47.128;15.422;2023-04-12T05:20:30;5.20;99.90
23869;DHT22;12115;47.128;15.422;2023-04-12T05:22:58;5.20;99.90
23869;DHT22;12115;47.128;15.422;2023-04-12T05:25:25;5.20;99.90
23869;DHT22;12115;47.128;15.422;2023-04-12T05:28:01;5.30;99.90
23869;DHT22;12115;47.128;15.422;2023-04-12T05:30:28;5.30;99.90
23869;DHT22;12115;47.128;15.422;2023-04-12T05:32:56;5.40;99.90
23869;DHT22;12115;47.128;15.422;2023-04-12T05:35:24;5.40;99.90
23869;DHT22;12115;47.128;15.422;2023-04-12T05:37:57;5.50;99.90
23869;DHT22;12115;47.128;15.422;2023-04-12T05:40:24;5.60;99.90
23869;DHT22;12115;47.128;15.422;2023-04-12T05:42:53;5.70;99.90
23869;DHT22;12115;47.128;15.422;2023-04-12T05:45:21;5.70;99.90
23869;DHT22;12115;47.128;15.422;2023-04-12T05:47:48;5.80;99.90
23869;DHT22;12115;47.128;15.422;2023-04-12T05:50:16;5.80;99.90
23869;DHT22;12115;47.128;15.422;2023-04-12T05:52:43;5.90;99.90
23869;DHT22;12115;47.128;15.422;2023-04-12T05:55:11;5.90;99.90
23869;DHT22;12115;47.128;15.422;2023-04-12T05:57:41;5.90;99.90
23869;DHT22;12115;47.128;15.422;2023-04-12T06:00:09;5.90;99.90
23869;DHT22;12115;47.128;15.422;2023-04-12T06:02:44;6.00;99.90
23869;DHT22;12115;47.128;15.422;2023-04-12T06:05:11;5.90;99.90
23869;DHT22;12115;47.128;15.422;2023-04-12T06:07:40;6.00;99.90
23869;DHT22;12115;47.128;15.422;2023-04-12T06:10:15;6.10;99.90
23869;DHT22;12115;47.128;15.422;2023-04-12T06:12:48;6.20;99.90
23869;DHT22;12115;47.128;15.422;2023-04-12T06:15:16;6.20;99.90
23869;DHT22;12115;47.128;15.422;2023-04-12T06:17:49;6.30;99.90
23869;DHT22;12115;47.128;15.422;2023-04-12T06:20:17;6.40;99.90
23869;DHT22;12115;47.128;15.422;2023-04-12T06:22:45;6.50;99.90
23869;DHT22;12115;47.128;15.422;2023-04-12T06:25:40;6.60;99.90
23869;DHT22;12115;47.128;15.422;2023-04-12T06:28:08;6.70;99.90
23869;DHT22;12115;47.128;15.422;2023-04-12T06:30:42;6.70;99.90
23869;DHT22;12115;47.128;15.422;2023-04-12T06:33:11;6.90;99.90
23869;DHT22;12115;47.128;15.422;2023-04-12T06:35:38;7.00;99.90
23869;DHT22;12115;47.128;15.422;2023-04-12T06:38:35;7.00;99.90
23869;DHT22;12115;47.128;15.422;2023-04-12T06:41:03;7.10;99.90
23869;DHT22;12115;47.128;15.422;2023-04-12T06:43:30;7.20;99.90
23869;DHT22;12115;47.128;15.422;2023-04-12T06:45:58;7.30;99.90
23869;DHT22;12115;47.128;15.422;2023-04-12T06:48:26;7.30;99.90
23869;DHT22;12115;47.128;15.422;2023-04-12T06:50:53;7.40;99.90
23869;DHT22;12115;47.128;15.422;2023-04-12T06:53:20;7.50;99.90
23869;DHT22;12115;47.128;15.422;2023-04-12T06:55:48;7.60;99.90
23869;DHT22;12115;47.128;15.422;2023-04-12T06:58:17;7.70;99.90
23869;DHT22;12115;47.128;15.422;2023-04-12T07:00:44;7.80;99.90
23869;DHT22;12115;47.128;15.422;2023-04-12T07:03:12;7.90;99.90
23869;DHT22;12115;47.128;15.422;2023-04-12T07:05:39;8.00;99.90
23869;DHT22;12115;47.128;15.422;2023-04-12T07:08:13;8.10;99.90
23869;DHT22;12115;47.128;15.422;2023-04-12T07:10:52;8.20;99.90
23869;DHT22;12115;47.128;15.422;2023-04-12T07:13:20;8.30;99.90
23869;DHT22;12115;47.128;15.422;2023-04-12T07:15:52;8.40;99.90
23869;DHT22;12115;47.128;15.422;2023-04-12T07:18:33;8.50;99.90
23869;DHT22;12115;47.128;15.422;2023-04-12T07:21:00;8.70;99.90
23869;DHT22;12115;47.128;15.422;2023-04-12T07:23:29;8.80;99.90
23869;DHT22;12115;47.128;15.422;2023-04-12T07:26:01;9.00;99.90
23869;DHT22;12115;47.128;15.422;2023-04-12T07:28:28;9.20;99.90
23869;DHT22;12115;47.128;15.422;2023-04-12T07:30:55;9.40;99.90
23869;DHT22;12115;47.128;15.422;2023-04-12T07:33:26;9.50;99.90
23869;DHT22;12115;47.128;15.422;2023-04-12T07:35:53;9.60;99.90
23869;DHT22;12115;47.128;15.422;2023-04-12T07:38:22;9.70;99.90
23869;DHT22;12115;47.128;15.422;2023-04-12T07:40:49;9.70;99.90
23869;DHT22;12115;47.128;15.422;2023-04-12T07:43:16;9.80;99.90
23869;DHT22;12115;47.128;15.422;2023-04-12T07:45:43;10.00;99.90
23869;DHT22;12115;47.128;15.422;2023-04-12T07:48:11;10.10;99.90
23869;DHT22;12115;47.128;15.422;2023-04-12T07:50:42;10.30;99.90
23869;DHT22;12115;47.128;15.422;2023-04-12T07:53:24;10.50;99.90
23869;DHT22;12115;47.128;15.422;2023-04-12T07:55:54;10.70;99.90
23869;DHT22;12115;47.128;15.422;2023-04-12T07:58:23;10.90;99.90
23869;DHT22;12115;47.128;15.422;2023-04-12T08:00:51;11.10;99.90
23869;DHT22;12115;47.128;15.422;2023-04-12T08:03:30;11.20;99.90
23869;DHT22;12115;47.128;15.422;2023-04-12T08:05:57;11.20;99.90
23869;DHT22;12115;47.128;15.422;2023-04-12T08:08:27;11.10;98.40
23869;DHT22;12115;47.128;15.422;2023-04-12T08:11:19;11.00;99.90
23869;DHT22;12115;47.128;15.422;2023-04-12T08:13:47;11.10;99.40
23869;DHT22;12115;47.128;15.422;2023-04-12T08:16:14;11.20;99.90
23869;DHT22;12115;47.128;15.422;2023-04-12T08:18:41;11.20;99.30
23869;DHT22;12115;47.128;15.422;2023-04-12T08:21:09;11.20;99.50
23869;DHT22;12115;47.128;15.422;2023-04-12T08:23:36;11.30;99.60
23869;DHT22;12115;47.128;15.422;2023-04-12T08:26:04;11.40;99.90
23869;DHT22;12115;47.128;15.422;2023-04-12T08:28:31;11.40;99.20
23869;DHT22;12115;47.128;15.422;2023-04-12T08:30:59;11.50;99.10
23869;DHT22;12115;47.128;15.422;2023-04-12T08:33:27;11.50;98.80
23869;DHT22;12115;47.128;15.422;2023-04-12T08:35:54;11.50;98.40
23869;DHT22;12115;47.128;15.422;2023-04-12T08:38:22;11.50;97.60
23869;DHT22;12115;47.128;15.422;2023-04-12T08:41:07;11.50;97.50
23869;DHT22;12115;47.128;15.422;2023-04-12T08:43:36;11.50;96.70
23869;DHT22;12115;47.128;15.422;2023-04-12T08:46:04;11.50;97.10
23869;DHT22;12115;47.128;15.422;2023-04-12T08:48:33;11.50;96.90
23869;DHT22;12115;47.128;15.422;2023-04-12T08:51:01;11.70;97.10
23869;DHT22;12115;47.128;15.422;2023-04-12T08:53:29;11.80;97.00
23869;DHT22;12115;47.128;15.422;2023-04-12T08:55:57;11.90;97.10
23869;DHT22;12115;47.128;15.422;2023-04-12T08:58:25;12.10;96.70
23869;DHT22;12115;47.128;15.422;2023-04-12T09:00:53;12.20;96.30
23869;DHT22;12115;47.128;15.422;2023-04-12T09:03:20;12.30;96.30
23869;DHT22;12115;47.128;15.422;2023-04-12T09:05:48;12.40;95.10
23869;DHT22;12115;47.128;15.422;2023-04-12T09:08:17;12.50;95.60
23869;DHT22;12115;47.128;15.422;2023-04-12T09:10:44;12.40;94.10
23869;DHT22;12115;47.128;15.422;2023-04-12T09:13:13;12.40;96.00
23869;DHT22;12115;47.128;15.422;2023-04-12T09:15:48;12.50;95.30
23869;DHT22;12115;47.128;15.422;2023-04-12T09:18:17;12.60;94.90
23869;DHT22;12115;47.128;15.422;2023-04-12T09:20:44;12.50;94.50
23869;DHT22;12115;47.128;15.422;2023-04-12T09:23:19;12.40;94.00
23869;DHT22;12115;47.128;15.422;2023-04-12T09:25:47;12.40;94.70
23869;DHT22;12115;47.128;15.422;2023-04-12T09:28:24;12.30;94.50
23869;DHT22;12115;47.128;15.422;2023-04-12T09:30:53;12.30;94.40
23869;DHT22;12115;47.128;15.422;2023-04-12T09:33:44;12.30;94.30
23869;DHT22;12115;47.128;15.422;2023-04-12T09:36:10;12.30;94.90
23869;DHT22;12115;47.128;15.422;2023-04-12T09:38:57;12.50;94.80
23869;DHT22;12115;47.128;15.422;2023-04-12T09:41:26;12.40;93.60
23869;DHT22;12115;47.128;15.422;2023-04-12T09:43:57;12.40;93.90
23869;DHT22;12115;47.128;15.422;2023-04-12T09:46:26;12.50;94.30
23869;DHT22;12115;47.128;15.422;2023-04-12T09:48:55;12.60;93.20
23869;DHT22;12115;47.128;15.422;2023-04-12T09:51:29;12.60;94.20
23869;DHT22;12115;47.128;15.422;2023-04-12T09:54:01;12.70;94.20
23869;DHT22;12115;47.128;15.422;2023-04-12T09:56:32;12.90;94.70
23869;DHT22;12115;47.128;15.422;2023-04-12T09:59:05;13.10;93.60
23869;DHT22;12115;47.128;15.422;2023-04-12T10:01:35;12.80;93.00
23869;DHT22;12115;47.128;15.422;2023-04-12T10:04:05;12.90;93.80
23869;DHT22;12115;47.128;15.422;2023-04-12T10:06:36;13.10;93.70
23869;DHT22;12115;47.128;15.422;2023-04-12T10:09:03;13.30;93.20
23869;DHT22;12115;47.128;15.422;2023-04-12T10:11:38;13.40;92.80
23869;DHT22;12115;47.128;15.422;2023-04-12T10:14:09;13.50;92.50
23869;DHT22;12115;47.128;15.422;2023-04-12T10:16:39;13.60;93.00
23869;DHT22;12115;47.128;15.422;2023-04-12T10:19:08;13.90;92.70
23869;DHT22;12115;47.128;15.422;2023-04-12T10:21:36;14.10;92.10
23869;DHT22;12115;47.128;15.422;2023-04-12T10:24:04;14.30;91.80
23869;DHT22;12115;47.128;15.422;2023-04-12T10:26:42;14.40;91.00
23869;DHT22;12115;47.128;15.422;2023-04-12T10:32:20;14.60;89.00
23869;DHT22;12115;47.128;15.422;2023-04-12T10:39:10;14.50;87.90
23869;DHT22;12115;47.128;15.422;2023-04-12T10:41:37;14.70;86.90
23869;DHT22;12115;47.128;15.422;2023-04-12T10:44:23;14.60;88.80
23869;DHT22;12115;47.128;15.422;2023-04-12T10:46:51;14.60;88.20
23869;DHT22;12115;47.128;15.422;2023-04-12T10:49:19;14.50;88.00
23869;DHT22;12115;47.128;15.422;2023-04-12T10:52:15;14.70;88.00
23869;DHT22;12115;47.128;15.422;2023-04-12T10:54:43;14.70;87.20
23869;DHT22;12115;47.128;15.422;2023-04-12T10:57:44;14.40;85.90
23869;DHT22;12115;47.128;15.422;2023-04-12T11:00:13;14.50;90.00
23869;DHT22;12115;47.128;15.422;2023-04-12T11:03:07;14.80;91.00
23869;DHT22;12115;47.128;15.422;2023-04-12T11:06:04;15.00;89.40
23869;DHT22;12115;47.128;15.422;2023-04-12T11:19:57;15.00;86.80
23869;DHT22;12115;47.128;15.422;2023-04-12T11:22:32;14.80;86.90
23869;DHT22;12115;47.128;15.422;2023-04-12T11:25:01;14.80;84.90
23869;DHT22;12115;47.128;15.422;2023-04-12T11:27:29;14.60;85.40
23869;DHT22;12115;47.128;15.422;2023-04-12T11:30:13;14.50;85.10
23869;DHT22;12115;47.128;15.422;2023-04-12T11:33:31;14.70;87.10
23869;DHT22;12115;47.128;15.422;2023-04-12T11:36:18;14.70;85.70
23869;DHT22;12115;47.128;15.422;2023-04-12T11:38:46;14.70;85.10
23869;DHT22;12115;47.128;15.422;2023-04-12T11:41:14;14.90;86.70
23869;DHT22;12115;47.128;15.422;2023-04-12T11:43:43;14.70;83.70
23869;DHT22;12115;47.128;15.422;2023-04-12T11:46:11;14.50;84.80
23869;DHT22;12115;47.128;15.422;2023-04-12T11:48:52;14.40;85.20
23869;DHT22;12115;47.128;15.422;2023-04-12T11:51:20;14.50;85.20
23869;DHT22;12115;47.128;15.422;2023-04-12T11:53:52;14.60;84.90
23869;DHT22;12115;47.128;15.422;2023-04-12T11:56:20;14.50;84.90
23869;DHT22;12115;47.128;15.422;2023-04-12T11:58:48;14.60;84.10
23869;DHT22;12115;47.128;15.422;2023-04-12T12:01:36;14.70;85.00
23869;DHT22;12115;47.128;15.422;2023-04-12T12:04:04;14.70;85.00
23869;DHT22;12115;47.128;15.422;2023-04-12T12:06:32;14.80;84.50
23869;DHT22;12115;47.128;15.422;2023-04-12T12:09:25;14.80;84.70
23869;DHT22;12115;47.128;15.422;2023-04-12T12:11:53;14.90;85.30
23869;DHT22;12115;47.128;15.422;2023-04-12T12:14:23;15.00;84.20
23869;DHT22;12115;47.128;15.422;2023-04-12T12:19:39;14.90;83.90
23869;DHT22;12115;47.128;15.422;2023-04-12T12:22:11;15.00;85.40
23869;DHT22;12115;47.128;15.422;2023-04-12T12:24:51;15.20;86.50
23869;DHT22;12115;47.128;15.422;2023-04-12T12:27:21;15.30;83.80
23869;DHT22;12115;47.128;15.422;2023-04-12T12:29:53;15.30;84.00
23869;DHT22;12115;47.128;15.422;2023-04-12T12:36:53;15.20;83.90
23869;DHT22;12115;47.128;15.422;2023-04-12T12:39:31;15.40;83.70
23869;DHT22;12115;47.128;15.422;2023-04-12T12:41:58;15.50;84.20
23869;DHT22;12115;47.128;15.422;2023-04-12T12:44:26;15.70;84.50
23869;DHT22;12115;47.128;15.422;2023-04-12T12:46:53;15.60;81.70
23869;DHT22;12115;47.128;15.422;2023-04-12T12:49:35;15.40;82.90
23869;DHT22;12115;47.128;15.422;2023-04-12T12:52:03;15.50;83.40
23869;DHT22;12115;47.128;15.422;2023-04-12T12:54:30;15.60;84.40
23869;DHT22;12115;47.128;15.422;2023-04-12T12:57:06;15.50;81.70
23869;DHT22;12115;47.128;15.422;2023-04-12T12:59:34;15.40;81.10
23869;DHT22;12115;47.128;15.422;2023-04-12T13:02:01;15.30;80.80
23869;DHT22;12115;47.128;15.422;2023-04-12T13:04:28;15.20;80.10
23869;DHT22;12115;47.128;15.422;2023-04-12T13:06:56;15.40;82.60
23869;DHT22;12115;47.128;15.422;2023-04-12T13:09:23;15.60;82.00
23869;DHT22;12115;47.128;15.422;2023-04-12T13:11:51;15.70;82.20
23869;DHT22;12115;47.128;15.422;2023-04-12T13:14:18;15.70;80.60
23869;DHT22;12115;47.128;15.422;2023-04-12T13:16:46;15.60;80.70
23869;DHT22;12115;47.128;15.422;2023-04-12T13:19:16;15.50;80.10
23869;DHT22;12115;47.128;15.422;2023-04-12T13:21:43;15.40;81.50
23869;DHT22;12115;47.128;15.422;2023-04-12T13:24:11;15.50;81.40
23869;DHT22;12115;47.128;15.422;2023-04-12T13:26:39;15.60;81.90
23869;DHT22;12115;47.128;15.422;2023-04-12T13:29:07;15.70;80.80
23869;DHT22;12115;47.128;15.422;2023-04-12T13:31:35;15.70;80.90
23869;DHT22;12115;47.128;15.422;2023-04-12T13:34:02;15.70;80.40
23869;DHT22;12115;47.128;15.422;2023-04-12T13:36:33;15.70;81.40
23869;DHT22;12115;47.128;15.422;2023-04-12T13:39:01;15.70;81.20
23869;DHT22;12115;47.128;15.422;2023-04-12T13:41:32;15.70;80.60
23869;DHT22;12115;47.128;15.422;2023-04-12T13:44:01;15.60;79.60
23869;DHT22;12115;47.128;15.422;2023-04-12T13:46:32;15.60;80.70
23869;DHT22;12115;47.128;15.422;2023-04-12T13:48:59;15.60;80.40
23869;DHT22;12115;47.128;15.422;2023-04-12T13:51:27;15.50;79.30
23869;DHT22;12115;47.128;15.422;2023-04-12T13:57:13;15.80;80.10
23869;DHT22;12115;47.128;15.422;2023-04-12T13:59:41;15.80;79.80
23869;DHT22;12115;47.128;15.422;2023-04-12T14:02:08;15.90;80.20
23869;DHT22;12115;47.128;15.422;2023-04-12T14:04:37;15.80;79.50
23869;DHT22;12115;47.128;15.422;2023-04-12T14:07:15;15.80;80.10
23869;DHT22;12115;47.128;15.422;2023-04-12T14:09:44;15.90;81.00
23869;DHT22;12115;47.128;15.422;2023-04-12T14:12:11;15.80;78.80
23869;DHT22;12115;47.128;15.422;2023-04-12T14:14:38;15.80;81.40
23869;DHT22;12115;47.128;15.422;2023-04-12T14:17:09;15.90;82.10
23869;DHT22;12115;47.128;15.422;2023-04-12T14:19:36;15.90;80.00
23869;DHT22;12115;47.128;15.422;2023-04-12T14:22:03;15.90;81.20
23869;DHT22;12115;47.128;15.422;2023-04-12T14:24:31;16.00;82.10
23869;DHT22;12115;47.128;15.422;2023-04-12T14:26:58;16.10;79.80
23869;DHT22;12115;47.128;15.422;2023-04-12T14:29:28;16.00;79.80
23869;DHT22;12115;47.128;15.422;2023-04-12T14:31:56;16.00;79.30
23869;DHT22;12115;47.128;15.422;2023-04-12T14:34:23;15.90;77.80
23869;DHT22;12115;47.128;15.422;2023-04-12T14:36:51;15.70;78.60
23869;DHT22;12115;47.128;15.422;2023-04-12T14:39:19;15.80;80.50
23869;DHT22;12115;47.128;15.422;2023-04-12T14:41:46;15.90;80.60
23869;DHT22;12115;47.128;15.422;2023-04-12T14:44:13;15.90;79.40
23869;DHT22;12115;47.128;15.422;2023-04-12T14:46:41;16.00;79.90
23869;DHT22;12115;47.128;15.422;2023-04-12T14:49:08;16.00;78.80
23869;DHT22;12115;47.128;15.422;2023-04-12T14:51:35;16.10;79.60
23869;DHT22;12115;47.128;15.422;2023-04-12T14:54:03;16.10;79.60
23869;DHT22;12115;47.128;15.422;2023-04-12T14:56:30;16.20;79.70
23869;DHT22;12115;47.128;15.422;2023-04-12T14:59:02;16.30;80.60
23869;DHT22;12115;47.128;15.422;2023-04-12T15:01:30;16.40;80.40
23869;DHT22;12115;47.128;15.422;2023-04-12T15:03:59;16.30;80.40
23869;DHT22;12115;47.128;15.422;2023-04-12T15:06:27;16.20;77.80
23869;DHT22;12115;47.128;15.422;2023-04-12T15:08:56;16.10;78.60
23869;DHT22;12115;47.128;15.422;2023-04-12T15:11:23;16.10;78.00
23869;DHT22;12115;47.128;15.422;2023-04-12T15:13:53;16.00;77.90
23869;DHT22;12115;47.128;15.422;2023-04-12T15:16:21;15.90;78.40
23869;DHT22;12115;47.128;15.422;2023-04-12T15:18:50;15.90;79.40
23869;DHT22;12115;47.128;15.422;2023-04-12T15:21:18;15.90;79.10
23869;DHT22;12115;47.128;15.422;2023-04-12T15:23:46;16.00;79.40
23869;DHT22;12115;47.128;15.422;2023-04-12T15:26:13;16.10;79.30
23869;DHT22;12115;47.128;15.422;2023-04-12T15:28:41;16.00;78.70
23869;DHT22;12115;47.128;15.422;2023-04-12T15:31:21;15.90;77.70
23869;DHT22;12115;47.128;15.422;2023-04-12T15:33:49;15.80;78.80
23869;DHT22;12115;47.128;15.422;2023-04-12T15:36:17;15.90;80.40
23869;DHT22;12115;47.128;15.422;2023-04-12T15:38:45;15.90;79.50
23869;DHT22;12115;47.128;15.422;2023-04-12T15:41:13;15.90;79.80
23869;DHT22;12115;47.128;15.422;2023-04-12T15:43:40;15.90;78.70
23869;DHT22;12115;47.128;15.422;2023-04-12T15:46:13;15.90;79.20
23869;DHT22;12115;47.128;15.422;2023-04-12T15:48:40;15.80;78.90
23869;DHT22;12115;47.128;15.422;2023-04-12T15:51:09;15.80;78.60
23869;DHT22;12115;47.128;15.422;2023-04-12T15:53:39;15.70;78.40
23869;DHT22;12115;47.128;15.422;2023-04-12T15:56:10;15.70;79.50
23869;DHT22;12115;47.128;15.422;2023-04-12T15:58:40;15.80;80.00
23869;DHT22;12115;47.128;15.422;2023-04-12T16:01:07;15.80;79.30
23869;DHT22;12115;47.128;15.422;2023-04-12T16:03:34;15.80;79.00
23869;DHT22;12115;47.128;15.422;2023-04-12T16:06:04;15.80;79.00
23869;DHT22;12115;47.128;15.422;2023-04-12T16:08:32;15.70;79.60
23869;DHT22;12115;47.128;15.422;2023-04-12T16:11:01;15.70;80.20
23869;DHT22;12115;47.128;15.422;2023-04-12T16:13:29;15.70;81.20
23869;DHT22;12115;47.128;15.422;2023-04-12T16:15:57;15.80;82.70
23869;DHT22;12115;47.128;15.422;2023-04-12T16:18:25;15.80;84.30
23869;DHT22;12115;47.128;15.422;2023-04-12T16:20:56;15.90;83.00
23869;DHT22;12115;47.128;15.422;2023-04-12T16:23:23;15.90;80.90
23869;DHT22;12115;47.128;15.422;2023-04-12T16:25:51;15.80;82.60
23869;DHT22;12115;47.128;15.422;2023-04-12T16:28:19;15.80;82.40
23869;DHT22;12115;47.128;15.422;2023-04-12T16:31:13;15.80;80.30